YEG weather

Edmonton International Airport
Edmonton, Alberta, Canada

Public forecast

Using degrees Celsius for public forecast. Weather courtesy of forecast.io.

Current aviation weather report (METAR) for Edmonton International Airport

Retrieved 2019/11/22 19:00 UTC (16 minutes ago):

CYEG 221900Z 25009KT 20SM FEW240 05/M02 A2975 RMK CI1 CI TR SLP107

Aviation forecast (TAF) for Edmonton International Airport

Retrieved 2019/11/22 18:42 UTC (34 minutes ago):

TAF CYEG 221740Z 2218/2318 21005KT P6SM FEW080 BECMG 2218/2220 27012G22KT FM230000 24010G20KT P6SM FEW080 SCT140 BKN240 FM230800 25012KT WS005/28035KT P6SM SCT200 FM231600 27015G25KT P6SM FEW080 RMK NXT FCST BY 222100Z